sensor_id;sensor_type;location;lat;lon;timestamp;pressure;altitude;pressure_sealevel;temperature;humidity
50105;BME280;47690;39.202;-77.198;2023-09-19T00:02:19;99705.97;;;22.86;55.08
50105;BME280;47690;39.202;-77.198;2023-09-19T00:04:52;99708.84;;;22.83;55.62
50105;BME280;47690;39.202;-77.198;2023-09-19T00:07:53;99717.06;;;22.78;56.12
50105;BME280;47690;39.202;-77.198;2023-09-19T00:10:35;99714.78;;;22.73;56.59
50105;BME280;47690;39.202;-77.198;2023-09-19T00:13:37;99729.00;;;22.71;56.78
50105;BME280;47690;39.202;-77.198;2023-09-19T00:16:20;99740.16;;;22.61;56.92
50105;BME280;47690;39.202;-77.198;2023-09-19T00:19:08;99739.53;;;22.58;56.99
50105;BME280;47690;39.202;-77.198;2023-09-19T00:21:44;99735.69;;;22.50;57.01
50105;BME280;47690;39.202;-77.198;2023-09-19T00:24:40;99743.78;;;22.47;56.27
50105;BME280;47690;39.202;-77.198;2023-09-19T00:27:39;99742.66;;;22.38;56.45
50105;BME280;47690;39.202;-77.198;2023-09-19T00:30:45;99754.44;;;22.33;57.15
50105;BME280;47690;39.202;-77.198;2023-09-19T00:34:17;99753.09;;;22.27;56.73
50105;BME280;47690;39.202;-77.198;2023-09-19T00:37:23;99761.31;;;22.22;57.42
50105;BME280;47690;39.202;-77.198;2023-09-19T00:40:46;99756.69;;;22.13;57.67
50105;BME280;47690;39.202;-77.198;2023-09-19T00:43:47;99757.13;;;22.07;57.84
50105;BME280;47690;39.202;-77.198;2023-09-19T00:46:24;99763.56;;;22.03;57.87
50105;BME280;47690;39.202;-77.198;2023-09-19T00:49:14;99775.97;;;22.01;57.94
50105;BME280;47690;39.202;-77.198;2023-09-19T00:51:47;99778.16;;;21.94;58.60
50105;BME280;47690;39.202;-77.198;2023-09-19T00:54:23;99780.06;;;21.92;58.90
50105;BME280;47690;39.202;-77.198;2023-09-19T00:57:03;99780.28;;;21.89;58.96
50105;BME280;47690;39.202;-77.198;2023-09-19T00:59:39;99790.03;;;21.87;58.96
50105;BME280;47690;39.202;-77.198;2023-09-19T01:02:11;99798.13;;;21.83;59.15
50105;BME280;47690;39.202;-77.198;2023-09-19T01:04:56;99802.72;;;21.80;59.49
50105;BME280;47690;39.202;-77.198;2023-09-19T01:07:39;99809.25;;;21.74;59.17
50105;BME280;47690;39.202;-77.198;2023-09-19T01:10:21;99806.00;;;21.71;59.82
50105;BME280;47690;39.202;-77.198;2023-09-19T01:13:13;99813.97;;;21.69;59.42
50105;BME280;47690;39.202;-77.198;2023-09-19T01:16:38;99813.97;;;21.69;59.34
50105;BME280;47690;39.202;-77.198;2023-09-19T01:22:21;99825.16;;;21.58;59.59
50105;BME280;47690;39.202;-77.198;2023-09-19T01:28:31;99827.00;;;21.43;59.72
50105;BME280;47690;39.202;-77.198;2023-09-19T01:31:11;99823.13;;;21.36;60.08
50105;BME280;47690;39.202;-77.198;2023-09-19T01:33:57;99834.56;;;21.35;60.47
50105;BME280;47690;39.202;-77.198;2023-09-19T01:36:39;99832.88;;;21.34;60.83
50105;BME280;47690;39.202;-77.198;2023-09-19T01:39:15;99831.31;;;21.31;60.59
50105;BME280;47690;39.202;-77.198;2023-09-19T01:42:05;99835.81;;;21.29;60.88
50105;BME280;47690;39.202;-77.198;2023-09-19T01:45:20;99834.00;;;21.29;60.52
50105;BME280;47690;39.202;-77.198;2023-09-19T01:52:02;99833.69;;;21.21;60.75
50105;BME280;47690;39.202;-77.198;2023-09-19T01:56:00;99834.00;;;21.17;60.68
50105;BME280;47690;39.202;-77.198;2023-09-19T01:58:49;99836.94;;;21.12;60.99
50105;BME280;47690;39.202;-77.198;2023-09-19T02:01:40;99849.06;;;21.13;61.32
50105;BME280;47690;39.202;-77.198;2023-09-19T02:04:43;99849.28;;;21.10;60.91
50105;BME280;47690;39.202;-77.198;2023-09-19T02:07:52;99857.06;;;21.11;60.92
50105;BME280;47690;39.202;-77.198;2023-09-19T02:10:55;99853.69;;;21.09;61.22
50105;BME280;47690;39.202;-77.198;2023-09-19T02:13:35;99859.94;;;21.07;61.53
50105;BME280;47690;39.202;-77.198;2023-09-19T02:16:12;99867.94;;;21.05;61.52
50105;BME280;47690;39.202;-77.198;2023-09-19T02:18:49;99855.78;;;21.04;61.39
50105;BME280;47690;39.202;-77.198;2023-09-19T02:21:36;99860.16;;;21.04;61.39
50105;BME280;47690;39.202;-77.198;2023-09-19T02:24:15;99866.44;;;21.01;61.54
50105;BME280;47690;39.202;-77.198;2023-09-19T02:26:55;99864.66;;;21.01;61.27
50105;BME280;47690;39.202;-77.198;2023-09-19T02:29:35;99872.63;;;21.00;60.92
50105;BME280;47690;39.202;-77.198;2023-09-19T02:32:07;99885.63;;;21.01;60.41
50105;BME280;47690;39.202;-77.198;2023-09-19T02:34:44;99882.06;;;21.02;60.05
50105;BME280;47690;39.202;-77.198;2023-09-19T02:37:23;99886.34;;;21.04;59.93
50105;BME280;47690;39.202;-77.198;2023-09-19T02:39:58;99891.38;;;21.07;59.45
50105;BME280;47690;39.202;-77.198;2023-09-19T02:42:52;99897.25;;;21.10;59.49
50105;BME280;47690;39.202;-77.198;2023-09-19T02:45:28;99897.38;;;21.09;59.17
50105;BME280;47690;39.202;-77.198;2023-09-19T02:48:11;99898.19;;;21.09;59.32
50105;BME280;47690;39.202;-77.198;2023-09-19T02:50:52;99905.22;;;21.09;59.22
50105;BME280;47690;39.202;-77.198;2023-09-19T02:53:35;99900.72;;;21.11;59.18
50105;BME280;47690;39.202;-77.198;2023-09-19T02:56:08;99904.38;;;21.08;59.16
50105;BME280;47690;39.202;-77.198;2023-09-19T02:58:48;99906.16;;;21.08;59.36
50105;BME280;47690;39.202;-77.198;2023-09-19T03:01:34;99907.84;;;21.09;59.21
50105;BME280;47690;39.202;-77.198;2023-09-19T03:04:15;99902.91;;;21.04;59.05
50105;BME280;47690;39.202;-77.198;2023-09-19T03:06:56;99904.13;;;20.98;58.96
50105;BME280;47690;39.202;-77.198;2023-09-19T03:09:36;99914.72;;;20.97;59.11
50105;BME280;47690;39.202;-77.198;2023-09-19T03:12:27;99920.22;;;20.92;59.15
50105;BME280;47690;39.202;-77.198;2023-09-19T03:15:43;99925.47;;;20.92;59.20
50105;BME280;47690;39.202;-77.198;2023-09-19T03:18:39;99927.53;;;20.87;59.28
50105;BME280;47690;39.202;-77.198;2023-09-19T03:21:19;99932.13;;;20.83;59.16
50105;BME280;47690;39.202;-77.198;2023-09-19T03:23:56;99933.97;;;20.81;59.06
50105;BME280;47690;39.202;-77.198;2023-09-19T03:26:30;99939.09;;;20.83;59.24
50105;BME280;47690;39.202;-77.198;2023-09-19T03:29:12;99939.31;;;20.80;59.09
50105;BME280;47690;39.202;-77.198;2023-09-19T03:31:50;99938.53;;;20.78;59.36
50105;BME280;47690;39.202;-77.198;2023-09-19T03:34:22;99945.66;;;20.75;59.19
50105;BME280;47690;39.202;-77.198;2023-09-19T03:37:00;99949.31;;;20.73;59.43
50105;BME280;47690;39.202;-77.198;2023-09-19T03:39:35;99947.94;;;20.67;59.54
50105;BME280;47690;39.202;-77.198;2023-09-19T03:42:09;99946.34;;;20.65;59.50
50105;BME280;47690;39.202;-77.198;2023-09-19T03:44:48;99946.53;;;20.61;59.60
50105;BME280;47690;39.202;-77.198;2023-09-19T03:47:24;99947.47;;;20.60;59.42
50105;BME280;47690;39.202;-77.198;2023-09-19T03:50:08;99952.81;;;20.59;59.42
50105;BME280;47690;39.202;-77.198;2023-09-19T03:52:47;99950.38;;;20.56;59.30
50105;BME280;47690;39.202;-77.198;2023-09-19T03:55:19;99947.84;;;20.54;59.47
50105;BME280;47690;39.202;-77.198;2023-09-19T03:57:51;99952.34;;;20.52;59.52
50105;BME280;47690;39.202;-77.198;2023-09-19T04:00:27;99958.59;;;20.50;59.35
50105;BME280;47690;39.202;-77.198;2023-09-19T04:03:07;99958.59;;;20.50;59.68
50105;BME280;47690;39.202;-77.198;2023-09-19T04:05:39;99965.59;;;20.49;59.42
50105;BME280;47690;39.202;-77.198;2023-09-19T04:08:12;99969.25;;;20.46;59.62
50105;BME280;47690;39.202;-77.198;2023-09-19T04:10:47;99965.03;;;20.44;59.55
50105;BME280;47690;39.202;-77.198;2023-09-19T04:13:21;99966.09;;;20.41;59.63
50105;BME280;47690;39.202;-77.198;2023-09-19T04:15:55;99961.97;;;20.37;59.75
50105;BME280;47690;39.202;-77.198;2023-09-19T04:18:38;99972.72;;;20.32;59.81
50105;BME280;47690;39.202;-77.198;2023-09-19T04:21:11;99978.13;;;20.29;59.77
50105;BME280;47690;39.202;-77.198;2023-09-19T04:23:42;99977.56;;;20.24;60.18
50105;BME280;47690;39.202;-77.198;2023-09-19T04:26:12;99988.19;;;20.21;60.17
50105;BME280;47690;39.202;-77.198;2023-09-19T04:28:48;99989.22;;;20.18;60.37
50105;BME280;47690;39.202;-77.198;2023-09-19T04:31:22;99984.09;;;20.17;60.53
50105;BME280;47690;39.202;-77.198;2023-09-19T04:34:04;99979.03;;;20.14;60.47
50105;BME280;47690;39.202;-77.198;2023-09-19T04:36:39;99986.22;;;20.10;60.33
50105;BME280;47690;39.202;-77.198;2023-09-19T04:39:11;99995.94;;;20.08;60.24
50105;BME280;47690;39.202;-77.198;2023-09-19T04:41:44;100003.22;;;20.17;59.78
50105;BME280;47690;39.202;-77.198;2023-09-19T04:44:19;99994.34;;;20.05;60.44
50105;BME280;47690;39.202;-77.198;2023-09-19T04:46:48;100001.53;;;20.02;60.54
50105;BME280;47690;39.202;-77.198;2023-09-19T04:49:22;99994.63;;;20.01;60.67
50105;BME280;47690;39.202;-77.198;2023-09-19T04:51:55;99995.63;;;19.98;60.84
50105;BME280;47690;39.202;-77.198;2023-09-19T04:54:24;100005.44;;;19.95;60.52
50105;BME280;47690;39.202;-77.198;2023-09-19T04:56:59;100015.31;;;19.89;60.57
50105;BME280;47690;39.202;-77.198;2023-09-19T04:59:40;100015.66;;;19.83;60.61
50105;BME280;47690;39.202;-77.198;2023-09-19T05:02:16;100020.22;;;19.79;60.94
50105;BME280;47690;39.202;-77.198;2023-09-19T05:04:56;100021.38;;;19.74;60.70
50105;BME280;47690;39.202;-77.198;2023-09-19T05:07:31;100020.63;;;19.72;60.85
50105;BME280;47690;39.202;-77.198;2023-09-19T05:10:05;100013.06;;;19.67;60.82
50105;BME280;47690;39.202;-77.198;2023-09-19T05:12:40;100015.75;;;19.65;60.81
50105;BME280;47690;39.202;-77.198;2023-09-19T05:15:13;100010.78;;;19.61;60.85
50105;BME280;47690;39.202;-77.198;2023-09-19T05:17:51;100010.97;;;19.58;60.87
50105;BME280;47690;39.202;-77.198;2023-09-19T05:20:27;100016.47;;;19.53;60.96
50105;BME280;47690;39.202;-77.198;2023-09-19T05:23:07;100020.25;;;19.47;60.94
50105;BME280;47690;39.202;-77.198;2023-09-19T05:25:43;100009.25;;;19.42;60.62
50105;BME280;47690;39.202;-77.198;2023-09-19T05:28:18;100019.84;;;19.39;61.10
50105;BME280;47690;39.202;-77.198;2023-09-19T05:30:50;100015.72;;;19.35;61.06
50105;BME280;47690;39.202;-77.198;2023-09-19T05:33:22;100018.56;;;19.30;61.11
50105;BME280;47690;39.202;-77.198;2023-09-19T05:35:54;100019.63;;;19.28;61.12
50105;BME280;47690;39.202;-77.198;2023-09-19T05:38:28;100022.31;;;19.26;61.28
50105;BME280;47690;39.202;-77.198;2023-09-19T05:40:59;100020.69;;;19.23;61.06
50105;BME280;47690;39.202;-77.198;2023-09-19T05:43:39;100023.50;;;19.20;61.29
50105;BME280;47690;39.202;-77.198;2023-09-19T05:46:12;100022.72;;;19.18;61.34
50105;BME280;47690;39.202;-77.198;2023-09-19T05:48:47;100026.25;;;19.17;61.37
50105;BME280;47690;39.202;-77.198;2023-09-19T05:51:19;100021.97;;;19.16;61.56
50105;BME280;47690;39.202;-77.198;2023-09-19T05:53:54;100020.22;;;19.17;61.73
50105;BME280;47690;39.202;-77.198;2023-09-19T05:56:27;100028.97;;;19.16;61.54
50105;BME280;47690;39.202;-77.198;2023-09-19T05:58:59;100028.03;;;19.17;61.80
50105;BME280;47690;39.202;-77.198;2023-09-19T06:01:35;100029.78;;;19.16;61.82
50105;BME280;47690;39.202;-77.198;2023-09-19T06:04:07;100032.41;;;19.16;61.91
50105;BME280;47690;39.202;-77.198;2023-09-19T06:06:40;100036.94;;;19.13;61.67
50105;BME280;47690;39.202;-77.198;2023-09-19T06:09:15;100037.03;;;19.11;61.91
50105;BME280;47690;39.202;-77.198;2023-09-19T06:11:52;100033.75;;;19.07;61.71
50105;BME280;47690;39.202;-77.198;2023-09-19T06:14:40;100028.63;;;19.06;61.79
50105;BME280;47690;39.202;-77.198;2023-09-19T06:17:18;100032.22;;;19.03;61.70
50105;BME280;47690;39.202;-77.198;2023-09-19T06:19:51;100028.84;;;19.01;61.56
50105;BME280;47690;39.202;-77.198;2023-09-19T06:22:44;100028.06;;;18.99;61.51
50105;BME280;47690;39.202;-77.198;2023-09-19T06:25:19;100025.69;;;18.94;61.89
50105;BME280;47690;39.202;-77.198;2023-09-19T06:27:53;100030.25;;;18.91;61.50
50105;BME280;47690;39.202;-77.198;2023-09-19T06:30:35;100031.19;;;18.90;62.14
50105;BME280;47690;39.202;-77.198;2023-09-19T06:33:12;100038.25;;;18.88;61.69
50105;BME280;47690;39.202;-77.198;2023-09-19T06:35:51;100032.25;;;18.86;62.09
50105;BME280;47690;39.202;-77.198;2023-09-19T06:38:39;100041.88;;;18.85;61.85
50105;BME280;47690;39.202;-77.198;2023-09-19T06:41:30;100032.59;;;18.79;61.80
50105;BME280;47690;39.202;-77.198;2023-09-19T06:44:24;100022.38;;;18.75;61.87
50105;BME280;47690;39.202;-77.198;2023-09-19T06:47:00;100021.69;;;18.71;61.98
50105;BME280;47690;39.202;-77.198;2023-09-19T06:49:43;100019.94;;;18.72;62.00
50105;BME280;47690;39.202;-77.198;2023-09-19T06:52:24;100027.09;;;18.68;62.25
50105;BME280;47690;39.202;-77.198;2023-09-19T06:55:15;100030.56;;;18.68;62.34
50105;BME280;47690;39.202;-77.198;2023-09-19T06:58:00;100033.91;;;18.70;62.65
50105;BME280;47690;39.202;-77.198;2023-09-19T07:00:55;100030.31;;;18.73;62.50
50105;BME280;47690;39.202;-77.198;2023-09-19T07:03:39;100031.25;;;18.72;62.22
50105;BME280;47690;39.202;-77.198;2023-09-19T07:06:20;100032.81;;;18.75;62.63
50105;BME280;47690;39.202;-77.198;2023-09-19T07:09:03;100024.09;;;18.76;62.68
50105;BME280;47690;39.202;-77.198;2023-09-19T07:11:48;100016.09;;;18.79;62.83
50105;BME280;47690;39.202;-77.198;2023-09-19T07:14:27;100029.88;;;18.81;63.18
50105;BME280;47690;39.202;-77.198;2023-09-19T07:17:19;100018.38;;;18.85;63.35
50105;BME280;47690;39.202;-77.198;2023-09-19T07:20:00;100021.00;;;18.85;63.46
50105;BME280;47690;39.202;-77.198;2023-09-19T07:23:03;100021.75;;;18.87;63.63
50105;BME280;47690;39.202;-77.198;2023-09-19T07:25:39;100021.75;;;18.87;63.43
50105;BME280;47690;39.202;-77.198;2023-09-19T07:28:15;100019.97;;;18.88;63.61
50105;BME280;47690;39.202;-77.198;2023-09-19T07:30:52;100032.09;;;18.89;63.76
50105;BME280;47690;39.202;-77.198;2023-09-19T07:33:30;100032.03;;;18.90;63.56
50105;BME280;47690;39.202;-77.198;2023-09-19T07:36:04;100027.63;;;18.91;63.87
50105;BME280;47690;39.202;-77.198;2023-09-19T07:38:41;100033.59;;;18.93;63.59
50105;BME280;47690;39.202;-77.198;2023-09-19T07:41:14;100033.72;;;18.91;63.83
50105;BME280;47690;39.202;-77.198;2023-09-19T07:43:52;100021.66;;;18.89;63.98
50105;BME280;47690;39.202;-77.198;2023-09-19T07:46:22;100032.09;;;18.89;63.97
50105;BME280;47690;39.202;-77.198;2023-09-19T07:48:59;100023.16;;;18.93;63.72
50105;BME280;47690;39.202;-77.198;2023-09-19T07:51:30;100026.63;;;18.93;64.24
50105;BME280;47690;39.202;-77.198;2023-09-19T07:54:15;100021.41;;;18.93;63.73
50105;BME280;47690;39.202;-77.198;2023-09-19T07:57:01;100026.44;;;18.96;64.15
50105;BME280;47690;39.202;-77.198;2023-09-19T07:59:37;100026.63;;;18.93;63.86
50105;BME280;47690;39.202;-77.198;2023-09-19T08:02:15;100023.16;;;18.93;63.72
50105;BME280;47690;39.202;-77.198;2023-09-19T08:04:46;100022.34;;;18.92;63.83
50105;BME280;47690;39.202;-77.198;2023-09-19T08:07:20;100024.09;;;18.92;63.99
50105;BME280;47690;39.202;-77.198;2023-09-19T08:09:56;100020.66;;;18.91;64.09
50105;BME280;47690;39.202;-77.198;2023-09-19T08:12:35;100020.66;;;18.91;63.89
50105;BME280;47690;39.202;-77.198;2023-09-19T08:15:07;100023.28;;;18.91;64.02
50105;BME280;47690;39.202;-77.198;2023-09-19T08:17:43;100020.66;;;18.91;64.13
50105;BME280;47690;39.202;-77.198;2023-09-19T08:20:14;100026.81;;;18.90;64.15
50105;BME280;47690;39.202;-77.198;2023-09-19T08:22:54;100039.00;;;18.90;64.11
50105;BME280;47690;39.202;-77.198;2023-09-19T08:25:38;100035.53;;;18.89;63.98
50105;BME280;47690;39.202;-77.198;2023-09-19T08:28:11;100037.81;;;18.95;63.35
50105;BME280;47690;39.202;-77.198;2023-09-19T08:30:45;100036.78;;;18.82;63.88
50105;BME280;47690;39.202;-77.198;2023-09-19T08:33:17;100037.28;;;18.73;63.83
50105;BME280;47690;39.202;-77.198;2023-09-19T08:35:56;100042.75;;;18.68;63.65
50105;BME280;47690;39.202;-77.198;2023-09-19T08:38:36;100045.59;;;18.63;63.94
50105;BME280;47690;39.202;-77.198;2023-09-19T08:41:08;100046.59;;;18.61;63.84
50105;BME280;47690;39.202;-77.198;2023-09-19T08:43:46;100044.06;;;18.59;64.40
50105;BME280;47690;39.202;-77.198;2023-09-19T08:46:20;100042.38;;;18.58;64.16
50105;BME280;47690;39.202;-77.198;2023-09-19T08:49:14;100057.88;;;18.61;64.21
50105;BME280;47690;39.202;-77.198;2023-09-19T08:52:16;100048.38;;;18.60;64.32
50105;BME280;47690;39.202;-77.198;2023-09-19T08:54:52;100056.22;;;18.60;64.56
50105;BME280;47690;39.202;-77.198;2023-09-19T08:57:33;100053.66;;;18.59;64.81
50105;BME280;47690;39.202;-77.198;2023-09-19T09:00:12;100046.78;;;18.58;64.62
50105;BME280;47690;39.202;-77.198;2023-09-19T09:02:52;100060.56;;;18.60;64.71
50105;BME280;47690;39.202;-77.198;2023-09-19T09:05:30;100052.75;;;18.60;64.68
50105;BME280;47690;39.202;-77.198;2023-09-19T09:08:06;100061.31;;;18.62;64.59
50105;BME280;47690;39.202;-77.198;2023-09-19T09:10:44;100069.16;;;18.62;64.71
50105;BME280;47690;39.202;-77.198;2023-09-19T09:13:21;100077.84;;;18.62;64.62
50105;BME280;47690;39.202;-77.198;2023-09-19T09:15:56;100076.03;;;18.63;64.64
50105;BME280;47690;39.202;-77.198;2023-09-19T09:18:33;100080.44;;;18.62;64.85
50105;BME280;47690;39.202;-77.198;2023-09-19T09:21:07;100084.72;;;18.63;64.75
50105;BME280;47690;39.202;-77.198;2023-09-19T09:23:48;100087.34;;;18.63;64.48
50105;BME280;47690;39.202;-77.198;2023-09-19T09:26:42;100092.38;;;18.66;64.67
50105;BME280;47690;39.202;-77.198;2023-09-19T09:29:23;100107.28;;;18.64;64.80
50105;BME280;47690;39.202;-77.198;2023-09-19T09:34:58;100116.03;;;18.63;64.43
50105;BME280;47690;39.202;-77.198;2023-09-19T09:37:35;100130.13;;;18.59;64.79
50105;BME280;47690;39.202;-77.198;2023-09-19T09:40:09;100130.38;;;18.54;64.72
50105;BME280;47690;39.202;-77.198;2023-09-19T09:42:51;100132.22;;;18.52;64.54
50105;BME280;47690;39.202;-77.198;2023-09-19T09:45:29;100127.09;;;18.51;65.14
50105;BME280;47690;39.202;-77.198;2023-09-19T09:48:12;100134.91;;;18.51;65.10
50105;BME280;47690;39.202;-77.198;2023-09-19T09:50:53;100139.28;;;18.50;65.07
50105;BME280;47690;39.202;-77.198;2023-09-19T09:53:31;100140.97;;;18.51;64.95
50105;BME280;47690;39.202;-77.198;2023-09-19T09:56:11;100133.97;;;18.52;65.17
50105;BME280;47690;39.202;-77.198;2023-09-19T09:58:51;100136.53;;;18.53;64.92
50105;BME280;47690;39.202;-77.198;2023-09-19T10:01:48;100135.59;;;18.54;65.14
50105;BME280;47690;39.202;-77.198;2023-09-19T10:04:29;100133.97;;;18.52;65.05
50105;BME280;47690;39.202;-77.198;2023-09-19T10:07:28;100124.47;;;18.51;64.79
50105;BME280;47690;39.202;-77.198;2023-09-19T10:10:11;100134.09;;;18.50;64.88
50105;BME280;47690;39.202;-77.198;2023-09-19T10:12:48;100140.28;;;18.48;65.12
50105;BME280;47690;39.202;-77.198;2023-09-19T10:15:26;100142.03;;;18.47;65.16
50105;BME280;47690;39.202;-77.198;2023-09-19T10:18:07;100145.63;;;18.45;65.04
50105;BME280;47690;39.202;-77.198;2023-09-19T10:20:41;100152.69;;;18.42;64.97
50105;BME280;47690;39.202;-77.198;2023-09-19T10:23:20;100158.09;;;18.39;64.83
50105;BME280;47690;39.202;-77.198;2023-09-19T10:26:02;100154.69;;;18.37;64.77
50105;BME280;47690;39.202;-77.198;2023-09-19T10:28:39;100160.91;;;18.35;64.91
50105;BME280;47690;39.202;-77.198;2023-09-19T10:31:13;100161.91;;;18.32;65.05
50105;BME280;47690;39.202;-77.198;2023-09-19T10:33:51;100168.94;;;18.30;65.14
50105;BME280;47690;39.202;-77.198;2023-09-19T10:36:27;100169.09;;;18.27;64.77
50105;BME280;47690;39.202;-77.198;2023-09-19T10:39:09;100164.88;;;18.24;64.97
50105;BME280;47690;39.202;-77.198;2023-09-19T10:41:56;100173.56;;;18.25;64.95
50105;BME280;47690;39.202;-77.198;2023-09-19T10:44:32;100175.47;;;18.21;65.10
50105;BME280;47690;39.202;-77.198;2023-09-19T10:47:12;100178.06;;;18.21;64.87
50105;BME280;47690;39.202;-77.198;2023-09-19T10:49:48;100191.00;;;18.23;64.87
50105;BME280;47690;39.202;-77.198;2023-09-19T10:52:25;100191.00;;;18.23;65.24
50105;BME280;47690;39.202;-77.198;2023-09-19T10:55:06;100197.03;;;18.25;64.74
50105;BME280;47690;39.202;-77.198;2023-09-19T10:57:44;100190.88;;;18.26;65.08
50105;BME280;47690;39.202;-77.198;2023-09-19T11:00:19;100193.50;;;18.26;64.93
50105;BME280;47690;39.202;-77.198;2023-09-19T11:06:05;100203.63;;;18.32;64.68
50105;BME280;47690;39.202;-77.198;2023-09-19T11:09:03;100211.44;;;18.32;64.35
50105;BME280;47690;39.202;-77.198;2023-09-19T11:11:52;100208.84;;;18.32;64.75
50105;BME280;47690;39.202;-77.198;2023-09-19T11:14:30;100212.28;;;18.33;64.48
50105;BME280;47690;39.202;-77.198;2023-09-19T11:28:27;100243.34;;;18.37;64.34
50105;BME280;47690;39.202;-77.198;2023-09-19T11:31:41;100247.56;;;18.40;64.33
50105;BME280;47690;39.202;-77.198;2023-09-19T11:34:39;100257.03;;;18.42;64.23
50105;BME280;47690;39.202;-77.198;2023-09-19T11:40:05;100260.38;;;18.45;64.22
50105;BME280;47690;39.202;-77.198;2023-09-19T11:42:58;100264.72;;;18.46;64.26
50105;BME280;47690;39.202;-77.198;2023-09-19T11:48:31;100271.53;;;18.48;64.32
50105;BME280;47690;39.202;-77.198;2023-09-19T11:51:13;100277.53;;;18.50;64.38
50105;BME280;47690;39.202;-77.198;2023-09-19T11:53:55;100278.28;;;18.52;64.46
50105;BME280;47690;39.202;-77.198;2023-09-19T11:56:27;100283.34;;;18.55;64.35
50105;BME280;47690;39.202;-77.198;2023-09-19T11:59:03;100279.75;;;18.58;64.48
50105;BME280;47690;39.202;-77.198;2023-09-19T12:01:42;100290.06;;;18.61;64.42
50105;BME280;47690;39.202;-77.198;2023-09-19T12:04:45;100294.13;;;18.67;64.10
50105;BME280;47690;39.202;-77.198;2023-09-19T12:07:20;100294.88;;;18.69;64.25
50105;BME280;47690;39.202;-77.198;2023-09-19T12:10:02;100303.75;;;18.84;64.03
50105;BME280;47690;39.202;-77.198;2023-09-19T12:12:37;100304.81;;;18.80;64.09
50105;BME280;47690;39.202;-77.198;2023-09-19T12:15:07;100304.66;;;18.83;64.12
50105;BME280;47690;39.202;-77.198;2023-09-19T12:17:43;100302.59;;;18.90;64.51
50105;BME280;47690;39.202;-77.198;2023-09-19T12:20:15;100303.97;;;18.97;64.53
50105;BME280;47690;39.202;-77.198;2023-09-19T12:22:49;100308.31;;;19.16;63.67
50105;BME280;47690;39.202;-77.198;2023-09-19T12:25:23;100309.38;;;19.11;63.94
50105;BME280;47690;39.202;-77.198;2023-09-19T12:28:00;100297.88;;;19.16;64.25
50105;BME280;47690;39.202;-77.198;2023-09-19T12:30:35;100308.91;;;19.21;64.11
50105;BME280;47690;39.202;-77.198;2023-09-19T12:33:26;100309.31;;;19.31;63.96
50105;BME280;47690;39.202;-77.198;2023-09-19T12:35:59;100308.31;;;19.33;64.32
50105;BME280;47690;39.202;-77.198;2023-09-19T12:38:35;100315.84;;;19.40;64.16
50105;BME280;47690;39.202;-77.198;2023-09-19T12:41:08;100315.59;;;19.44;63.75
50105;BME280;47690;39.202;-77.198;2023-09-19T12:43:44;100317.09;;;19.48;64.03
50105;BME280;47690;39.202;-77.198;2023-09-19T12:46:15;100316.97;;;19.51;63.78
50105;BME280;47690;39.202;-77.198;2023-09-19T12:49:18;100315.72;;;19.59;63.64
50105;BME280;47690;39.202;-77.198;2023-09-19T12:51:49;100318.25;;;19.60;63.48
50105;BME280;47690;39.202;-77.198;2023-09-19T12:54:23;100324.25;;;19.62;63.80
50105;BME280;47690;39.202;-77.198;2023-09-19T12:56:57;100328.53;;;19.63;63.71
50105;BME280;47690;39.202;-77.198;2023-09-19T12:59:32;100320.63;;;19.65;63.35
50105;BME280;47690;39.202;-77.198;2023-09-19T13:02:09;100322.31;;;19.66;63.43
50105;BME280;47690;39.202;-77.198;2023-09-19T13:04:54;100332.53;;;19.71;63.60
50105;BME280;47690;39.202;-77.198;2023-09-19T13:07:45;100322.75;;;19.74;63.28
50105;BME280;47690;39.202;-77.198;2023-09-19T13:10:24;100330.53;;;19.76;63.14
50105;BME280;47690;39.202;-77.198;2023-09-19T13:13:23;100333.81;;;19.79;62.70
50105;BME280;47690;39.202;-77.198;2023-09-19T13:16:03;100324.31;;;19.78;62.62
50105;BME280;47690;39.202;-77.198;2023-09-19T13:18:52;100337.25;;;19.80;62.85
50105;BME280;47690;39.202;-77.198;2023-09-19T13:21:42;100333.72;;;19.81;62.14
50105;BME280;47690;39.202;-77.198;2023-09-19T13:24:29;100338.19;;;19.79;62.06
50105;BME280;47690;39.202;-77.198;2023-09-19T13:27:08;100345.97;;;19.81;61.79
50105;BME280;47690;39.202;-77.198;2023-09-19T13:29:52;100343.28;;;19.82;62.00
50105;BME280;47690;39.202;-77.198;2023-09-19T13:32:32;100344.97;;;19.83;62.00
50105;BME280;47690;39.202;-77.198;2023-09-19T13:35:08;100353.56;;;19.85;62.23
50105;BME280;47690;39.202;-77.198;2023-09-19T13:37:52;100355.94;;;19.90;62.18
50105;BME280;47690;39.202;-77.198;2023-09-19T13:40:25;100368.00;;;19.92;61.90
50105;BME280;47690;39.202;-77.198;2023-09-19T13:43:11;100364.44;;;19.93;61.63
50105;BME280;47690;39.202;-77.198;2023-09-19T13:46:01;100363.56;;;19.95;61.63
50105;BME280;47690;39.202;-77.198;2023-09-19T13:48:48;100361.78;;;19.95;61.31
50105;BME280;47690;39.202;-77.198;2023-09-19T13:51:40;100364.25;;;19.98;61.41
50105;BME280;47690;39.202;-77.198;2023-09-19T13:54:15;100357.25;;;19.99;61.42
50105;BME280;47690;39.202;-77.198;2023-09-19T13:56:48;100358.19;;;19.98;61.15
50105;BME280;47690;39.202;-77.198;2023-09-19T13:59:23;100368.47;;;20.01;61.17
50105;BME280;47690;39.202;-77.198;2023-09-19T14:02:05;100363.22;;;20.01;60.83
50105;BME280;47690;39.202;-77.198;2023-09-19T14:04:48;100370.06;;;20.03;60.89
50105;BME280;47690;39.202;-77.198;2023-09-19T14:07:37;100375.13;;;20.06;60.85
50105;BME280;47690;39.202;-77.198;2023-09-19T14:10:16;100368.06;;;20.09;60.73
50105;BME280;47690;39.202;-77.198;2023-09-19T14:12:51;100368.81;;;20.11;60.78
50105;BME280;47690;39.202;-77.198;2023-09-19T14:15:39;100381.66;;;20.15;60.46
50105;BME280;47690;39.202;-77.198;2023-09-19T14:18:19;100373.63;;;20.18;60.47